createdAt,value
2019-04-30T00:02:02.132Z,98752.26
2019-04-30T00:04:29.855Z,98748.17
2019-04-30T00:06:57.160Z,98748.78
2019-04-30T00:09:25.111Z,98750.34
2019-04-30T00:11:57.871Z,98743.61
2019-04-30T00:14:20.224Z,98746.85
2019-04-30T00:16:46.818Z,98740.83
2019-04-30T00:19:15.734Z,98737.58
2019-04-30T00:21:41.729Z,98732.15
2019-04-30T00:24:10.258Z,98733.98
2019-04-30T00:26:39.939Z,98736.63
2019-04-30T00:29:05.166Z,98732.15
2019-04-30T00:31:31.935Z,98737.69
2019-04-30T00:34:01.333Z,98743.48
2019-04-30T00:36:28.253Z,98734.81
2019-04-30T00:38:55.131Z,98733.61
2019-04-30T00:41:21.716Z,98732.86
2019-04-30T00:43:50.738Z,98734.31
2019-04-30T00:46:17.323Z,98737.92
2019-04-30T00:48:45.614Z,98735.52
2019-04-30T00:51:17.874Z,98731.27
2019-04-30T00:53:43.971Z,98724.89
2019-04-30T00:56:08.954Z,98727.42
2019-04-30T00:58:35.758Z,98738.14
2019-04-30T01:01:04.878Z,98733.56
2019-04-30T01:03:30.741Z,98733.92
2019-04-30T01:05:57.323Z,98731.27
2019-04-30T01:08:27.157Z,98727.86
2019-04-30T01:10:52.220Z,98728.23
2019-04-30T01:13:19.185Z,98726.42
2019-04-30T01:15:49.033Z,98729.80
2019-04-30T01:18:14.299Z,98727.50
2019-04-30T01:20:40.878Z,98732.69
2019-04-30T01:23:11.195Z,98733.89
2019-04-30T01:25:35.787Z,98728.95
2019-04-30T01:28:02.395Z,98727.98
2019-04-30T01:30:28.969Z,98724.84
2019-04-30T01:32:56.969Z,98727.38
2019-04-30T01:35:28.283Z,98726.41
2019-04-30T01:37:52.206Z,98728.70
2019-04-30T01:40:19.047Z,98728.58
2019-04-30T01:42:48.518Z,98722.80
2019-04-30T01:45:14.166Z,98725.81
2019-04-30T01:47:40.779Z,98725.81
2019-04-30T01:50:09.111Z,98729.15
2019-04-30T01:52:36.168Z,98724.20
2019-04-30T01:55:02.846Z,98724.92
2019-04-30T01:57:29.453Z,98722.27
2019-04-30T01:59:56.079Z,98718.17
2019-04-30T02:02:22.649Z,98715.40
2019-04-30T02:04:49.272Z,98712.75
2019-04-30T02:07:15.921Z,98720.10
2019-04-30T02:09:42.519Z,98711.66
2019-04-30T02:12:09.434Z,98716.84
2019-04-30T02:14:36.057Z,98719.02
2019-04-30T02:17:02.650Z,98719.86
2019-04-30T02:19:31.212Z,98716.36
2019-04-30T02:21:58.564Z,98716.36
2019-04-30T02:24:25.232Z,98717.20
2019-04-30T02:26:51.803Z,98721.05
2019-04-30T02:29:19.146Z,98713.95
2019-04-30T02:31:45.778Z,98714.27
2019-04-30T02:34:12.396Z,98713.95
2019-04-30T02:36:40.372Z,98713.95
2019-04-30T02:39:07.227Z,98710.45
2019-04-30T02:41:33.799Z,98713.10
2019-04-30T02:44:00.434Z,98715.27
2019-04-30T02:46:31.916Z,98710.45
2019-04-30T02:48:55.330Z,98716.23
2019-04-30T02:51:22.871Z,98714.19
2019-04-30T02:53:50.514Z,98710.82
2019-04-30T02:56:20.194Z,98710.09
2019-04-30T02:58:45.823Z,98715.40
2019-04-30T03:01:12.436Z,98704.44
2019-04-30T03:03:39.707Z,98714.08
2019-04-30T03:06:07.354Z,98712.63
2019-04-30T03:08:33.979Z,98712.50
2019-04-30T03:11:00.599Z,98714.80
2019-04-30T03:13:29.726Z,98714.31
2019-04-30T03:15:55.507Z,98713.47
2019-04-30T03:18:22.986Z,98711.42
2019-04-30T03:20:49.957Z,98713.84
2019-04-30T03:23:19.385Z,98719.39
2019-04-30T03:25:44.936Z,98712.55
2019-04-30T03:28:11.521Z,98717.49
2019-04-30T03:30:41.910Z,98716.41
2019-04-30T03:33:06.429Z,98719.19
2019-04-30T03:35:33.035Z,98717.27
2019-04-30T03:37:59.672Z,98713.41
2019-04-30T03:40:26.285Z,98713.17
2019-04-30T03:42:52.854Z,98715.45
2019-04-30T03:45:20.586Z,98716.09
2019-04-30T03:47:50.224Z,98713.92
2019-04-30T03:50:15.576Z,98709.59
2019-04-30T03:52:42.142Z,98711.27
2019-04-30T03:55:09.328Z,98713.08
2019-04-30T03:57:36.099Z,98708.98
2019-04-30T04:00:02.723Z,98707.02
2019-04-30T04:02:30.230Z,98710.39
2019-04-30T04:04:57.066Z,98710.27
2019-04-30T04:07:23.634Z,98707.63
2019-04-30T04:09:50.219Z,98713.64
2019-04-30T04:12:16.848Z,98705.20
2019-04-30T04:14:44.074Z,98707.38
2019-04-30T04:17:10.665Z,98707.26
2019-04-30T04:19:39.297Z,98713.28
2019-04-30T04:22:05.571Z,98713.16
2019-04-30T04:24:32.148Z,98712.04
2019-04-30T04:26:59.640Z,98706.73
2019-04-30T04:29:29.636Z,98710.11
2019-04-30T04:31:54.757Z,98712.27
2019-04-30T04:34:21.349Z,98704.32
2019-04-30T04:36:50.501Z,98703.36
2019-04-30T04:39:16.242Z,98705.41
2019-04-30T04:41:44.317Z,98706.13
2019-04-30T04:44:13.037Z,98700.57
2019-04-30T04:46:40.178Z,98704.91
2019-04-30T04:49:08.951Z,98701.29
2019-04-30T04:51:39.539Z,98693.82
2019-04-30T04:54:03.601Z,98704.42
2019-04-30T04:56:30.543Z,98699.61
2019-04-30T04:58:59.980Z,98703.94
2019-04-30T05:01:25.675Z,98689.97
2019-04-30T05:03:52.250Z,98698.64
2019-04-30T05:06:21.992Z,98702.98
2019-04-30T05:08:47.139Z,98708.16
2019-04-30T05:11:13.762Z,98708.97
2019-04-30T05:13:40.340Z,98705.22
2019-04-30T05:16:09.084Z,98708.59
2019-04-30T05:18:35.260Z,98703.17
2019-04-30T05:21:01.874Z,98709.09
2019-04-30T05:23:29.909Z,98710.66
2019-04-30T05:25:58.829Z,98705.00
2019-04-30T05:28:24.976Z,98708.62
2019-04-30T05:30:51.558Z,98708.26
2019-04-30T05:33:18.609Z,98708.02
2019-04-30T05:35:45.443Z,98707.77
2019-04-30T05:38:12.045Z,98707.60
2019-04-30T05:40:39.821Z,98709.16
2019-04-30T05:43:09.030Z,98703.25
2019-04-30T05:45:35.255Z,98709.15
2019-04-30T05:48:01.871Z,98707.09
2019-04-30T05:50:29.582Z,98705.84
2019-04-30T05:52:56.412Z,98706.91
2019-04-30T05:55:22.998Z,98709.31
2019-04-30T05:57:56.033Z,98713.88
2019-04-30T06:00:19.055Z,98710.98
2019-04-30T06:02:45.903Z,98706.88
2019-04-30T06:05:12.596Z,98717.20
2019-04-30T06:07:39.596Z,98714.55
2019-04-30T06:10:06.348Z,98713.94
2019-04-30T06:12:32.953Z,98712.13
2019-04-30T06:14:59.531Z,98717.44
2019-04-30T06:17:26.144Z,98712.25
2019-04-30T06:19:52.715Z,98720.34
2019-04-30T06:22:19.322Z,98713.83
2019-04-30T06:24:45.925Z,98723.13
2019-04-30T06:27:12.493Z,98722.92
2019-04-30T06:29:39.181Z,98720.87
2019-04-30T06:32:05.749Z,98718.35
2019-04-30T06:34:32.358Z,98723.53
2019-04-30T06:36:59.586Z,98724.73
2019-04-30T06:39:26.341Z,98731.08
2019-04-30T06:42:04.052Z,98727.95
2019-04-30T06:44:21.282Z,98723.84
2019-04-30T06:46:48.805Z,98729.25
2019-04-30T06:49:15.506Z,98726.34
2019-04-30T06:51:42.111Z,98726.70
2019-04-30T06:54:10.993Z,98732.37
2019-04-30T06:56:38.731Z,98730.20
2019-04-30T06:59:05.423Z,98735.27
2019-04-30T07:01:31.993Z,98732.62
2019-04-30T07:04:00.807Z,98730.81
2019-04-30T07:06:30.420Z,98735.63
2019-04-30T07:08:57.007Z,98735.51
2019-04-30T07:11:23.613Z,98738.03
2019-04-30T07:13:52.189Z,98742.02
2019-04-30T07:16:19.022Z,98742.02
2019-04-30T07:18:45.695Z,98736.22
2019-04-30T07:21:12.267Z,98741.17
2019-04-30T07:23:38.867Z,98739.36
2019-04-30T07:26:05.437Z,98742.63
2019-04-30T07:28:43.253Z,98743.73
2019-04-30T07:31:11.785Z,98740.48
2019-04-30T07:33:29.623Z,98746.40
2019-04-30T07:35:56.236Z,98739.89
2019-04-30T07:38:22.799Z,98749.17
2019-04-30T07:40:49.402Z,98746.40
2019-04-30T07:43:15.965Z,98750.02
2019-04-30T07:45:42.586Z,98749.33
2019-04-30T07:48:09.462Z,98747.65
2019-04-30T07:50:36.747Z,98751.63
2019-04-30T07:55:31.997Z,98752.31
2019-04-30T07:57:59.183Z,98753.80
2019-04-30T08:00:26.163Z,98754.28
2019-04-30T08:02:52.756Z,98752.80
2019-04-30T08:05:19.999Z,98750.66
2019-04-30T08:07:48.818Z,98753.64
2019-04-30T08:09:36.837Z,98754.64
2019-04-30T08:10:15.017Z,98754.23
2019-04-30T08:12:43.512Z,98759.98
2019-04-30T08:15:09.939Z,98755.58
2019-04-30T08:17:36.510Z,98753.58
2019-04-30T08:20:03.122Z,98752.69
2019-04-30T08:22:29.804Z,98751.87
2019-04-30T08:24:58.566Z,98757.39
2019-04-30T08:27:24.876Z,98753.70
2019-04-30T08:29:51.562Z,98753.89
2019-04-30T08:32:19.098Z,98751.91
2019-04-30T08:34:45.862Z,98762.86
2019-04-30T08:37:17.472Z,98761.14
2019-04-30T08:39:40.749Z,98761.20
2019-04-30T08:42:08.982Z,98761.20
2019-04-30T08:44:35.715Z,98765.45
2019-04-30T08:47:02.331Z,98768.76
2019-04-30T08:49:30.372Z,98768.17
2019-04-30T08:51:58.685Z,98765.66
2019-04-30T08:54:25.410Z,98768.70
2019-04-30T08:56:52.004Z,98767.14
2019-04-30T08:59:19.527Z,98765.45
2019-04-30T09:01:46.258Z,98772.10
2019-04-30T09:04:12.861Z,98770.78
2019-04-30T09:06:39.973Z,98768.47
2019-04-30T09:09:06.795Z,98775.70
2019-04-30T09:11:43.094Z,98774.73
2019-04-30T09:14:01.693Z,98773.98
2019-04-30T09:16:29.487Z,98774.34
2019-04-30T09:18:56.163Z,98780.14
2019-04-30T09:21:22.756Z,98775.92
2019-04-30T09:23:52.370Z,98769.19
2019-04-30T09:26:18.848Z,98776.94
2019-04-30T09:28:45.468Z,98774.56
2019-04-30T09:31:12.079Z,98769.97
2019-04-30T09:33:39.374Z,98775.89
2019-04-30T09:36:06.043Z,98776.02
2019-04-30T09:38:32.616Z,98767.56
2019-04-30T09:40:59.538Z,98769.38
2019-04-30T09:43:26.186Z,98769.80
2019-04-30T09:45:52.785Z,98772.03
2019-04-30T09:48:19.379Z,98770.47
2019-04-30T09:50:46.343Z,98770.27
2019-04-30T09:53:13.302Z,98769.73
2019-04-30T09:55:40.582Z,98765.26
2019-04-30T09:58:16.255Z,98762.95
2019-04-30T10:00:35.529Z,98767.30
2019-04-30T10:03:02.306Z,98773.59
2019-04-30T10:05:29.363Z,98763.09
2019-04-30T10:07:56.040Z,98770.58
2019-04-30T10:10:22.630Z,98767.16
2019-04-30T10:12:49.372Z,98767.52
2019-04-30T10:15:15.980Z,98764.38
2019-04-30T10:17:42.592Z,98765.76
2019-04-30T10:20:09.165Z,98763.94
2019-04-30T10:22:35.763Z,98765.36
2019-04-30T10:25:02.411Z,98762.56
2019-04-30T10:27:29.476Z,98762.78
2019-04-30T10:29:56.152Z,98758.53
2019-04-30T10:32:22.756Z,98764.47
2019-04-30T10:34:49.333Z,98760.88
2019-04-30T10:37:15.953Z,98765.98
2019-04-30T10:39:42.526Z,98763.45
2019-04-30T10:42:09.252Z,98767.93
2019-04-30T10:44:35.822Z,98764.11
2019-04-30T10:47:02.432Z,98769.69
2019-04-30T10:49:29.327Z,98761.63
2019-04-30T10:51:56.103Z,98763.92
2019-04-30T10:54:25.775Z,98762.86
2019-04-30T10:56:51.451Z,98768.26
2019-04-30T10:59:18.156Z,98767.32
2019-04-30T11:01:44.766Z,98766.87
2019-04-30T11:04:11.339Z,98767.92
2019-04-30T11:06:38.585Z,98771.94
2019-04-30T11:09:05.193Z,98771.84
2019-04-30T11:11:31.790Z,98768.95
2019-04-30T11:13:58.359Z,98771.06
2019-04-30T11:16:24.972Z,98772.27
2019-04-30T11:18:51.800Z,98771.62
2019-04-30T11:21:19.699Z,98766.79
2019-04-30T11:23:46.651Z,98775.25
2019-04-30T11:26:13.831Z,98772.40
2019-04-30T11:28:41.034Z,98763.94
2019-04-30T11:31:07.933Z,98770.84
2019-04-30T11:33:35.233Z,98774.17
2019-04-30T11:36:04.916Z,98775.30
2019-04-30T11:38:30.395Z,98769.20
2019-04-30T11:40:58.458Z,98775.38
2019-04-30T11:43:25.165Z,98777.81
2019-04-30T11:45:51.763Z,98773.47
2019-04-30T11:48:19.098Z,98770.33
2019-04-30T11:50:45.711Z,98771.05
2019-04-30T11:53:24.612Z,98773.93
2019-04-30T11:55:40.627Z,98768.08
2019-04-30T11:58:07.226Z,98775.66
2019-04-30T12:00:33.810Z,98772.88
2019-04-30T12:03:00.419Z,98769.38
2019-04-30T12:05:28.902Z,98770.58
2019-04-30T12:07:55.325Z,98772.16
2019-04-30T12:10:21.905Z,98760.11
2019-04-30T12:12:48.744Z,98773.67
2019-04-30T12:15:15.467Z,98763.30
2019-04-30T12:17:42.047Z,98764.89
2019-04-30T12:20:10.535Z,98761.88
2019-04-30T12:22:37.112Z,98761.88
2019-04-30T12:25:05.516Z,98765.50
2019-04-30T12:27:32.039Z,98757.53
2019-04-30T12:29:59.471Z,98759.58
2019-04-30T12:32:26.176Z,98759.33
2019-04-30T12:34:52.782Z,98763.73
2019-04-30T12:37:19.354Z,98762.77
2019-04-30T12:39:45.951Z,98762.50
2019-04-30T12:42:12.531Z,98756.68
2019-04-30T12:44:40.065Z,98759.50
2019-04-30T12:47:06.817Z,98761.02
2019-04-30T12:49:33.427Z,98756.52
2019-04-30T12:52:00.003Z,98758.65
2019-04-30T12:54:26.604Z,98756.09
2019-04-30T12:56:53.171Z,98762.80
2019-04-30T12:59:19.764Z,98758.97
2019-04-30T13:01:46.341Z,98762.73
2019-04-30T13:04:12.956Z,98758.39
2019-04-30T13:06:39.905Z,98756.97
2019-04-30T13:09:09.510Z,98751.07
2019-04-30T13:11:35.649Z,98749.52
2019-04-30T13:14:03.026Z,98746.67
2019-04-30T13:16:29.930Z,98749.68
2019-04-30T13:18:56.545Z,98752.24
2019-04-30T13:21:23.158Z,98749.97
2019-04-30T13:23:49.758Z,98753.05
2019-04-30T13:26:16.330Z,98753.31
2019-04-30T13:28:42.930Z,98749.94
2019-04-30T13:31:10.190Z,98744.53
2019-04-30T13:33:39.539Z,98747.19
2019-04-30T13:36:06.357Z,98747.31
2019-04-30T13:38:45.196Z,98748.16
2019-04-30T13:41:02.186Z,98743.20
2019-04-30T13:43:28.757Z,98750.55
2019-04-30T13:45:55.365Z,98747.28
2019-04-30T13:48:22.107Z,98741.48
2019-04-30T13:50:48.778Z,98747.02
2019-04-30T13:53:15.342Z,98743.04
2019-04-30T13:55:45.579Z,98749.06
2019-04-30T13:58:10.275Z,98746.89
2019-04-30T14:00:36.922Z,98743.39
2019-04-30T14:03:03.510Z,98743.88
2019-04-30T14:05:30.112Z,98744.02
2019-04-30T14:07:56.691Z,98742.33
2019-04-30T14:10:23.286Z,98745.34
2019-04-30T14:12:49.863Z,98741.36
2019-04-30T14:15:16.475Z,98743.75
2019-04-30T14:17:43.124Z,98745.80
2019-04-30T14:20:09.697Z,98741.45
2019-04-30T14:22:36.530Z,98740.74
2019-04-30T14:25:03.121Z,98740.74
2019-04-30T14:27:29.688Z,98744.73
2019-04-30T14:29:56.293Z,98739.90
2019-04-30T14:32:22.868Z,98738.44
2019-04-30T14:34:50.711Z,98738.80
2019-04-30T14:37:17.444Z,98746.05
2019-04-30T14:39:44.209Z,98746.67
2019-04-30T14:42:12.178Z,98744.63
2019-04-30T14:44:40.372Z,98742.59
2019-04-30T14:47:11.627Z,98746.83
2019-04-30T14:49:35.971Z,98742.64
2019-04-30T14:52:02.943Z,98746.76
2019-04-30T14:54:32.093Z,98738.44
2019-04-30T14:56:59.383Z,98740.86
2019-04-30T14:59:26.016Z,98744.00
2019-04-30T15:01:52.634Z,98736.65
2019-04-30T15:04:20.543Z,98735.94
2019-04-30T15:06:48.723Z,98738.84
2019-04-30T15:09:15.517Z,98739.95
2019-04-30T15:11:42.129Z,98730.81
2019-04-30T15:14:08.714Z,98736.48
2019-04-30T15:16:35.327Z,98733.95
2019-04-30T15:19:01.893Z,98736.13
2019-04-30T15:21:28.500Z,98735.77
2019-04-30T15:23:58.704Z,98733.95
2019-04-30T15:26:25.197Z,98736.25
2019-04-30T15:28:51.709Z,98737.70
2019-04-30T15:31:18.512Z,98738.06
2019-04-30T15:33:45.149Z,98739.03
2019-04-30T15:36:11.714Z,98735.41
2019-04-30T15:38:38.391Z,98745.19
2019-04-30T15:41:04.963Z,98740.72
2019-04-30T15:43:32.499Z,98737.22
2019-04-30T15:45:59.065Z,98742.05
2019-04-30T15:48:25.703Z,98736.73
2019-04-30T15:50:52.279Z,98731.78
2019-04-30T15:53:19.341Z,98737.09
2019-04-30T15:55:46.414Z,98728.77
2019-04-30T15:58:13.028Z,98736.37
2019-04-30T16:00:39.619Z,98738.67
2019-04-30T16:03:06.232Z,98723.71
2019-04-30T16:05:32.812Z,98726.85
2019-04-30T16:07:59.430Z,98725.05
2019-04-30T16:10:25.999Z,98727.95
2019-04-30T16:12:52.621Z,98725.55
2019-04-30T16:15:19.197Z,98727.48
2019-04-30T16:17:45.807Z,98726.32
2019-04-30T16:20:12.380Z,98722.47
2019-04-30T16:22:39.176Z,98722.11
2019-04-30T16:25:05.848Z,98733.09
2019-04-30T16:27:32.463Z,98726.45
2019-04-30T16:29:59.523Z,98736.71
2019-04-30T16:32:26.187Z,98729.72
2019-04-30T16:34:52.786Z,98734.31
2019-04-30T16:37:20.209Z,98733.95
2019-04-30T16:39:47.098Z,98729.25
2019-04-30T16:42:13.686Z,98736.37
2019-04-30T16:44:40.298Z,98733.72
2019-04-30T16:47:13.449Z,98731.06
2019-04-30T16:49:35.231Z,98725.76
2019-04-30T16:52:01.788Z,98723.94
2019-04-30T16:54:28.595Z,98727.56
2019-04-30T16:57:03.438Z,98725.88
2019-04-30T16:59:23.574Z,98720.57
2019-04-30T17:01:57.167Z,98725.04
2019-04-30T17:04:19.251Z,98723.23
2019-04-30T17:06:46.018Z,98724.07
2019-04-30T17:09:12.633Z,98725.76
2019-04-30T17:11:39.211Z,98730.22
2019-04-30T17:14:05.819Z,98727.08
2019-04-30T17:16:32.402Z,98734.56
2019-04-30T17:18:59.151Z,98730.22
2019-04-30T17:21:25.779Z,98724.91
2019-04-30T17:23:52.386Z,98720.57
2019-04-30T17:26:18.956Z,98718.77
2019-04-30T17:28:45.572Z,98732.03
2019-04-30T17:31:13.530Z,98731.67
2019-04-30T17:33:40.318Z,98731.31
2019-04-30T17:36:08.363Z,98732.41
2019-04-30T17:38:35.225Z,98736.88
2019-04-30T17:41:01.821Z,98741.86
2019-04-30T17:43:28.401Z,98735.70
2019-04-30T17:45:55.008Z,98739.69
2019-04-30T17:48:21.578Z,98738.84
2019-04-30T17:50:49.738Z,98747.29
2019-04-30T17:53:16.530Z,98751.63
2019-04-30T17:55:43.140Z,98754.77
2019-04-30T17:58:09.957Z,98750.91
2019-04-30T18:00:36.601Z,98758.39
2019-04-30T18:03:03.187Z,98754.05
2019-04-30T18:05:29.800Z,98760.20
2019-04-30T18:07:56.371Z,98761.53
2019-04-30T18:10:22.980Z,98759.36
2019-04-30T18:12:49.553Z,98766.48
2019-04-30T18:15:16.152Z,98767.80
2019-04-30T18:17:42.852Z,98764.79
2019-04-30T18:20:10.930Z,98764.79
2019-04-30T18:22:37.639Z,98775.77
2019-04-30T18:25:04.228Z,98772.75
2019-04-30T18:27:43.066Z,98769.25
2019-04-30T18:29:59.108Z,98768.41
2019-04-30T18:32:25.715Z,98773.72
2019-04-30T18:34:52.298Z,98769.73
2019-04-30T18:37:18.987Z,98766.37
2019-04-30T18:39:45.555Z,98770.34
2019-04-30T18:42:12.184Z,98776.74
2019-04-30T18:44:38.770Z,98776.87
2019-04-30T18:47:05.372Z,98774.13
2019-04-30T18:49:31.941Z,98781.37
2019-04-30T18:51:59.034Z,98779.94
2019-04-30T18:54:25.805Z,98783.67
2019-04-30T18:56:52.433Z,98785.12
2019-04-30T18:59:19.637Z,98785.73
2019-04-30T19:01:46.421Z,98782.59
2019-04-30T19:04:13.002Z,98780.07
2019-04-30T19:06:39.591Z,98780.07
2019-04-30T19:09:06.162Z,98781.03
2019-04-30T19:11:32.764Z,98782.72
2019-04-30T19:13:59.355Z,98784.53
2019-04-30T19:16:26.057Z,98778.05
2019-04-30T19:18:53.689Z,98781.52
2019-04-30T19:21:20.264Z,98775.41
2019-04-30T19:23:48.693Z,98786.02
2019-04-30T19:26:15.333Z,98779.50
2019-04-30T19:28:41.932Z,98777.33
2019-04-30T19:31:09.183Z,98776.48
2019-04-30T19:33:38.819Z,98777.45
2019-04-30T19:36:05.166Z,98779.63
2019-04-30T19:38:31.770Z,98777.94
2019-04-30T19:40:58.345Z,98776.13
2019-04-30T19:43:24.933Z,98765.16
2019-04-30T19:45:51.509Z,98768.66
2019-04-30T19:48:18.127Z,98773.96
2019-04-30T19:50:44.882Z,98771.67
2019-04-30T19:53:11.478Z,98772.52
2019-04-30T19:55:39.386Z,98768.05
2019-04-30T19:58:06.149Z,98766.24
2019-04-30T20:00:32.728Z,98765.27
2019-04-30T20:02:59.901Z,98770.09
2019-04-30T20:05:28.579Z,98768.62
2019-04-30T20:07:55.035Z,98767.29
2019-04-30T20:10:21.614Z,98769.33
2019-04-30T20:12:49.714Z,98765.36
2019-04-30T20:15:21.557Z,98762.22
2019-04-30T20:17:44.914Z,98755.95
2019-04-30T20:20:11.494Z,98757.75
2019-04-30T20:22:38.919Z,98755.10
2019-04-30T20:25:05.653Z,98758.72
2019-04-30T20:27:32.239Z,98751.73
2019-04-30T20:29:59.268Z,98749.92
2019-04-30T20:32:33.985Z,98756.55
2019-04-30T20:34:54.301Z,98750.41
2019-04-30T20:37:20.867Z,98750.89
2019-04-30T20:39:49.284Z,98749.69
2019-04-30T20:42:15.787Z,98747.03
2019-04-30T20:44:42.406Z,98747.39
2019-04-30T20:47:09.067Z,98741.25
2019-04-30T20:49:35.776Z,98739.08
2019-04-30T20:52:02.349Z,98733.92
2019-04-30T20:54:29.209Z,98735.25
2019-04-30T20:56:55.910Z,98726.94
2019-04-30T20:59:22.501Z,98723.80
2019-04-30T21:01:49.156Z,98724.64
2019-04-30T21:04:15.758Z,98711.73
2019-04-30T21:06:42.328Z,98707.41
2019-04-30T21:09:08.977Z,98708.09
2019-04-30T21:11:35.590Z,98707.12
2019-04-30T21:14:03.481Z,98713.27
2019-04-30T21:16:30.065Z,98713.98
2019-04-30T21:18:56.678Z,98718.93
2019-04-30T21:21:23.250Z,98717.12
2019-04-30T21:23:49.857Z,98716.64
2019-04-30T21:26:16.767Z,98707.23
2019-04-30T21:28:43.368Z,98697.59
2019-04-30T21:31:10.021Z,98707.23
2019-04-30T21:33:38.455Z,98703.97
2019-04-30T21:36:04.932Z,98701.31
2019-04-30T21:38:31.685Z,98698.66
2019-04-30T21:40:58.784Z,98692.52
2019-04-30T21:43:26.621Z,98691.06
2019-04-30T21:45:53.229Z,98693.72
2019-04-30T21:48:19.808Z,98692.03
2019-04-30T21:50:46.420Z,98692.52
2019-04-30T21:53:13.003Z,98687.69
2019-04-30T21:55:39.997Z,98689.02
2019-04-30T21:58:06.676Z,98689.14
2019-04-30T22:00:33.293Z,98692.28
2019-04-30T22:02:59.880Z,98682.64
2019-04-30T22:05:26.571Z,98686.61
2019-04-30T22:07:53.146Z,98683.60
2019-04-30T22:10:19.760Z,98681.44
2019-04-30T22:12:46.333Z,98680.95
2019-04-30T22:15:12.952Z,98680.59
2019-04-30T22:17:39.526Z,98675.29
2019-04-30T22:20:07.865Z,98672.64
2019-04-30T22:22:34.436Z,98671.80
2019-04-30T22:25:01.113Z,98675.77
2019-04-30T22:27:27.679Z,98672.28
2019-04-30T22:29:54.266Z,98667.97
2019-04-30T22:32:20.848Z,98666.29
2019-04-30T22:34:47.454Z,98663.99
2019-04-30T22:37:14.021Z,98665.80
2019-04-30T22:39:40.659Z,98666.65
2019-04-30T22:42:08.864Z,98661.83
2019-04-30T22:44:35.587Z,98659.66
2019-04-30T22:47:02.194Z,98660.98
2019-04-30T22:49:28.766Z,98660.63
2019-04-30T22:51:55.372Z,98663.77
2019-04-30T22:54:21.949Z,98663.89
2019-04-30T22:56:48.561Z,98662.20
2019-04-30T22:59:15.132Z,98655.22
2019-04-30T23:01:41.730Z,98657.87
2019-04-30T23:04:08.390Z,98655.22
2019-04-30T23:06:35.000Z,98654.86
2019-04-30T23:09:01.578Z,98650.48
2019-04-30T23:11:28.175Z,98648.80
2019-04-30T23:13:54.752Z,98644.82
2019-04-30T23:16:21.424Z,98648.44
2019-04-30T23:18:48.003Z,98644.11
2019-04-30T23:21:14.609Z,98643.75
2019-04-30T23:23:41.250Z,98640.61
2019-04-30T23:26:07.858Z,98633.98
2019-04-30T23:28:34.433Z,98636.27
2019-04-30T23:31:01.040Z,98635.43
2019-04-30T23:33:27.650Z,98635.43
2019-04-30T23:35:54.257Z,98628.32
2019-04-30T23:38:20.834Z,98627.96
2019-04-30T23:40:47.436Z,98629.77
2019-04-30T23:43:14.010Z,98628.09
2019-04-30T23:45:40.611Z,98624.62
2019-04-30T23:48:07.186Z,98621.61
2019-04-30T23:50:33.761Z,98619.09
2019-04-30T23:53:00.375Z,98628.37
2019-04-30T23:55:26.952Z,98627.52
2019-04-30T23:57:53.593Z,98618.50
